Terminal Aerodrome Forecast
Issued by NWS

Home | Current Version | Previous Version | Text Only | Print | Product List | Glossary On
Versions: 1 2 3 4 5 6 7 8 9 10 11 12 13
579
FTAK31 PAJN 291726
TAFAWG
TAF
PAWG 291726Z 2918/3018 VRB03KT P6SM VCSH BKN050
     FM300000 15005KT P6SM -SHRA BKN025 OVC050
     FM300500 15005KT P6SM VCSH SCT025 OVC040
     FM301500 15005KT P6SM SCT025 BKN050
      AMD LTD TO CLD VIS AND WIND 3006/3015=

USA.gov is the U.S. government's official web portal to all federal, state and local government web resources and services.